createdAt,value
2022-12-29T00:01:39.636Z,9.40
2022-12-29T00:04:11.340Z,9.30
2022-12-29T00:06:41.217Z,9.40
2022-12-29T00:09:07.967Z,9.30
2022-12-29T00:11:34.677Z,9.30
2022-12-29T00:14:25.716Z,9.40
2022-12-29T00:16:52.852Z,9.40
2022-12-29T00:19:38.480Z,9.40
2022-12-29T00:22:24.237Z,9.40
2022-12-29T00:25:09.558Z,9.50
2022-12-29T00:27:55.142Z,9.50
2022-12-29T00:30:41.285Z,9.50
2022-12-29T00:33:30.084Z,9.40
2022-12-29T00:36:20.120Z,9.50
2022-12-29T00:39:08.807Z,9.50
2022-12-29T00:41:58.351Z,9.50
2022-12-29T00:44:25.021Z,9.50
2022-12-29T00:46:51.803Z,9.60
2022-12-29T00:49:31.084Z,9.50
2022-12-29T00:52:11.667Z,9.50
2022-12-29T00:54:39.531Z,9.50
2022-12-29T00:57:07.360Z,9.50
2022-12-29T00:59:36.382Z,9.50
2022-12-29T01:02:03.214Z,9.50
2022-12-29T01:04:30.083Z,9.50
2022-12-29T01:06:56.835Z,9.50
2022-12-29T01:09:42.083Z,9.50
2022-12-29T01:12:09.733Z,9.50
2022-12-29T01:14:36.971Z,9.60
2022-12-29T01:17:03.695Z,9.60
2022-12-29T01:19:30.387Z,9.50
2022-12-29T01:21:57.230Z,9.50
2022-12-29T01:24:24.017Z,9.50
2022-12-29T01:26:50.839Z,9.50
2022-12-29T01:29:17.854Z,9.40
2022-12-29T01:31:46.398Z,9.40
2022-12-29T01:34:13.982Z,9.40
2022-12-29T01:36:40.666Z,9.40
2022-12-29T01:39:07.478Z,9.40
2022-12-29T01:41:34.267Z,9.40
2022-12-29T01:44:02.593Z,9.40
2022-12-29T01:46:43.486Z,9.40
2022-12-29T01:49:15.742Z,9.40
2022-12-29T01:51:46.350Z,9.40
2022-12-29T01:54:18.922Z,9.40
2022-12-29T01:56:45.688Z,9.30
2022-12-29T01:59:16.303Z,9.30
2022-12-29T02:01:43.389Z,9.40
2022-12-29T02:04:11.023Z,9.40
2022-12-29T02:06:58.442Z,9.40
2022-12-29T02:09:25.363Z,9.40
2022-12-29T02:11:52.179Z,9.50
2022-12-29T02:14:18.918Z,9.60
2022-12-29T02:17:28.098Z,9.50
2022-12-29T02:20:09.721Z,9.50
2022-12-29T02:23:15.254Z,9.60
2022-12-29T02:26:05.433Z,9.50
2022-12-29T02:28:48.683Z,9.60
2022-12-29T02:31:18.249Z,9.70
2022-12-29T02:34:12.514Z,9.70
2022-12-29T02:36:51.338Z,9.70
2022-12-29T02:39:24.819Z,9.70
2022-12-29T02:41:59.369Z,9.70
2022-12-29T02:44:31.481Z,9.70
2022-12-29T02:47:00.333Z,9.70
2022-12-29T02:49:43.635Z,9.70
2022-12-29T02:52:19.273Z,9.80
2022-12-29T02:54:46.029Z,9.80
2022-12-29T02:57:22.455Z,9.90
2022-12-29T02:59:51.376Z,9.90
2022-12-29T03:02:25.550Z,9.90
2022-12-29T03:05:14.941Z,9.90
2022-12-29T03:07:41.704Z,10.00
2022-12-29T03:10:41.927Z,9.90
2022-12-29T03:13:59.491Z,10.00
2022-12-29T03:16:30.463Z,9.90
2022-12-29T03:19:02.499Z,9.90
2022-12-29T03:22:03.773Z,9.90
2022-12-29T03:24:39.563Z,10.00
2022-12-29T03:27:07.408Z,10.00
2022-12-29T03:29:44.966Z,10.10
2022-12-29T03:32:12.687Z,10.10
2022-12-29T03:34:39.400Z,10.10
2022-12-29T03:37:09.121Z,10.00
2022-12-29T03:39:35.939Z,9.90
2022-12-29T03:42:04.258Z,9.90
2022-12-29T03:44:41.851Z,10.00
2022-12-29T03:47:11.372Z,10.00
2022-12-29T03:49:38.142Z,10.00
2022-12-29T03:52:05.656Z,10.00
2022-12-29T03:54:36.862Z,10.00
2022-12-29T03:57:03.762Z,10.00
2022-12-29T03:59:44.612Z,9.90
2022-12-29T04:02:12.508Z,9.90
2022-12-29T04:04:39.815Z,9.90
2022-12-29T04:07:07.620Z,9.90
2022-12-29T04:09:34.395Z,9.90
2022-12-29T04:12:02.113Z,9.90
2022-12-29T04:14:29.212Z,9.90
2022-12-29T04:16:56.330Z,10.00
2022-12-29T04:19:23.710Z,10.10
2022-12-29T04:21:50.731Z,10.00
2022-12-29T04:24:18.821Z,10.10
2022-12-29T04:26:46.288Z,10.00
2022-12-29T04:29:36.024Z,10.10
2022-12-29T04:32:12.907Z,10.00
2022-12-29T04:34:45.044Z,10.10
2022-12-29T04:37:12.236Z,10.10
2022-12-29T04:39:39.071Z,10.10
2022-12-29T04:42:07.503Z,10.00
2022-12-29T04:44:35.328Z,10.10
2022-12-29T04:47:33.903Z,10.10
2022-12-29T04:50:30.446Z,10.10
2022-12-29T04:53:17.960Z,10.10
2022-12-29T04:55:50.121Z,10.00
2022-12-29T04:58:22.418Z,9.90
2022-12-29T05:00:49.750Z,9.80
2022-12-29T05:03:17.064Z,9.80
2022-12-29T05:05:45.172Z,9.70
2022-12-29T05:08:13.570Z,9.60
2022-12-29T05:10:45.643Z,9.60
2022-12-29T05:13:13.079Z,9.60
2022-12-29T05:15:40.452Z,9.50
2022-12-29T05:18:07.365Z,9.50
2022-12-29T05:20:34.423Z,9.50
2022-12-29T05:23:01.233Z,9.50
2022-12-29T05:25:28.150Z,9.50
2022-12-29T05:28:05.614Z,9.40
2022-12-29T05:30:52.822Z,9.40
2022-12-29T05:33:19.928Z,9.40
2022-12-29T05:35:48.531Z,9.40
2022-12-29T05:38:15.612Z,9.40
2022-12-29T05:40:44.324Z,9.40
2022-12-29T05:43:35.279Z,9.40
2022-12-29T05:46:20.719Z,9.40
2022-12-29T05:48:58.431Z,9.40
2022-12-29T05:51:53.211Z,9.40
2022-12-29T05:54:20.045Z,9.30
2022-12-29T05:56:46.839Z,9.30
2022-12-29T05:59:13.610Z,9.30
2022-12-29T06:01:40.852Z,9.30
2022-12-29T06:04:08.160Z,9.30
2022-12-29T06:06:35.524Z,9.30
2022-12-29T06:09:03.755Z,9.30
2022-12-29T06:11:30.516Z,9.20
2022-12-29T06:13:59.430Z,9.30
2022-12-29T06:16:26.206Z,9.30
2022-12-29T06:18:57.412Z,9.30
2022-12-29T06:21:24.141Z,9.40
2022-12-29T06:23:50.848Z,9.40
2022-12-29T06:26:17.569Z,9.30
2022-12-29T06:28:46.052Z,9.30
2022-12-29T06:31:12.943Z,9.40
2022-12-29T06:33:40.259Z,9.40
2022-12-29T06:36:08.202Z,9.40
2022-12-29T06:38:36.155Z,9.40
2022-12-29T06:41:03.048Z,9.40
2022-12-29T06:43:38.983Z,9.40
2022-12-29T06:46:15.925Z,9.50
2022-12-29T06:48:44.143Z,9.50
2022-12-29T06:51:10.848Z,9.50
2022-12-29T06:53:37.516Z,9.40
2022-12-29T06:56:04.450Z,9.40
2022-12-29T06:58:31.653Z,9.30
2022-12-29T07:00:58.902Z,9.30
2022-12-29T07:03:26.221Z,9.30
2022-12-29T07:05:53.055Z,9.30
2022-12-29T07:08:19.813Z,9.30
2022-12-29T07:10:46.973Z,9.30
2022-12-29T07:13:13.654Z,9.40
2022-12-29T07:15:40.346Z,9.40
2022-12-29T07:18:07.036Z,9.30
2022-12-29T07:20:33.778Z,9.30
2022-12-29T07:23:00.459Z,9.30
2022-12-29T07:25:27.140Z,9.30
2022-12-29T07:27:53.853Z,9.20
2022-12-29T07:30:20.596Z,9.20
2022-12-29T07:32:47.374Z,9.20
2022-12-29T07:35:14.321Z,9.10
2022-12-29T07:37:41.093Z,9.20
2022-12-29T07:40:26.181Z,9.10
2022-12-29T07:42:52.922Z,9.20
2022-12-29T07:45:29.293Z,9.20
2022-12-29T07:48:11.696Z,9.10
2022-12-29T07:50:38.469Z,9.10
2022-12-29T07:53:05.265Z,9.10
2022-12-29T07:55:36.465Z,9.10
2022-12-29T07:58:06.986Z,9.10
2022-12-29T08:00:33.943Z,9.10
2022-12-29T08:03:00.752Z,9.10
2022-12-29T08:05:27.474Z,9.10
2022-12-29T08:07:54.204Z,9.00
2022-12-29T08:10:20.931Z,9.00
2022-12-29T08:12:47.746Z,9.00
2022-12-29T08:15:14.496Z,9.00
2022-12-29T08:17:41.284Z,9.00
2022-12-29T08:20:08.817Z,9.00
2022-12-29T08:22:35.752Z,9.00
2022-12-29T08:25:02.655Z,9.00
2022-12-29T08:27:29.389Z,8.90
2022-12-29T08:29:56.409Z,9.00
2022-12-29T08:32:23.288Z,9.00
2022-12-29T08:34:50.000Z,9.00
2022-12-29T08:37:16.854Z,9.00
2022-12-29T08:39:43.534Z,9.00
2022-12-29T08:42:10.328Z,9.00
2022-12-29T08:44:37.013Z,9.00
2022-12-29T08:47:03.725Z,9.00
2022-12-29T08:49:30.457Z,9.00
2022-12-29T08:51:57.242Z,9.10
2022-12-29T08:54:24.272Z,9.10
2022-12-29T08:56:51.059Z,9.10
2022-12-29T08:59:18.582Z,9.10
2022-12-29T09:01:47.926Z,9.10
2022-12-29T09:04:17.023Z,9.10
2022-12-29T09:06:45.428Z,9.20
2022-12-29T09:09:12.528Z,9.20
2022-12-29T09:11:39.755Z,9.30
2022-12-29T09:14:06.607Z,9.30
2022-12-29T09:16:36.667Z,9.30
2022-12-29T09:19:03.864Z,9.20
2022-12-29T09:21:30.691Z,9.30
2022-12-29T09:23:57.997Z,9.20
2022-12-29T09:26:24.862Z,9.20
2022-12-29T09:28:57.826Z,9.30
2022-12-29T09:31:26.220Z,9.30
2022-12-29T09:33:53.089Z,9.40
2022-12-29T09:36:19.875Z,9.40
2022-12-29T09:38:46.611Z,9.40
2022-12-29T09:41:21.622Z,9.40
2022-12-29T09:43:54.600Z,9.50
2022-12-29T09:46:24.329Z,9.40
2022-12-29T09:49:25.477Z,9.40
2022-12-29T09:51:54.744Z,9.50
2022-12-29T09:54:35.275Z,9.60
2022-12-29T09:57:02.238Z,9.60
2022-12-29T09:59:42.664Z,9.60
2022-12-29T10:02:09.961Z,9.70
2022-12-29T10:04:36.842Z,9.70
2022-12-29T10:07:34.200Z,9.70
2022-12-29T10:10:41.047Z,9.80
2022-12-29T10:13:39.818Z,9.80
2022-12-29T10:16:32.759Z,9.80
2022-12-29T10:19:06.387Z,9.80
2022-12-29T10:21:57.546Z,9.80
2022-12-29T10:24:24.287Z,9.90
2022-12-29T10:26:52.203Z,9.80
2022-12-29T10:29:25.423Z,9.80
2022-12-29T10:32:01.849Z,9.90
2022-12-29T10:34:33.321Z,9.90
2022-12-29T10:37:04.905Z,9.90
2022-12-29T10:39:51.968Z,9.90
2022-12-29T10:42:28.141Z,9.90
2022-12-29T10:44:57.998Z,9.90
2022-12-29T10:47:35.143Z,9.90
2022-12-29T10:50:02.614Z,9.90
2022-12-29T10:52:32.484Z,9.90
2022-12-29T10:55:11.098Z,9.90
2022-12-29T10:57:45.029Z,9.90
2022-12-29T11:00:22.100Z,9.90
2022-12-29T11:03:17.930Z,9.90
2022-12-29T11:09:14.670Z,9.90
2022-12-29T11:11:41.461Z,9.90
2022-12-29T11:14:23.306Z,9.90
2022-12-29T11:17:06.191Z,9.90
2022-12-29T11:19:37.651Z,9.90
2022-12-29T11:22:30.102Z,9.90
2022-12-29T11:25:08.034Z,9.90
2022-12-29T11:27:34.835Z,9.90
2022-12-29T11:30:01.601Z,9.90
2022-12-29T11:32:30.656Z,9.90
2022-12-29T11:35:01.932Z,9.90
2022-12-29T11:37:30.307Z,10.00
2022-12-29T11:40:08.992Z,10.00
2022-12-29T11:42:43.042Z,10.00
2022-12-29T11:45:23.769Z,10.00
2022-12-29T11:48:11.280Z,10.10
2022-12-29T11:50:40.181Z,10.00
2022-12-29T11:53:30.987Z,10.10
2022-12-29T11:56:03.290Z,10.10
2022-12-29T11:58:33.235Z,10.10
2022-12-29T12:01:34.457Z,10.10
2022-12-29T12:04:06.339Z,10.10
2022-12-29T12:06:34.986Z,10.10
2022-12-29T12:09:11.341Z,10.10
2022-12-29T12:11:41.791Z,10.10
2022-12-29T12:14:27.550Z,10.10
2022-12-29T12:17:13.873Z,10.10
2022-12-29T12:20:00.980Z,10.10
2022-12-29T12:22:33.664Z,10.20
2022-12-29T12:25:06.317Z,10.20
2022-12-29T12:27:37.086Z,10.20
2022-12-29T12:30:15.088Z,10.20
2022-12-29T12:32:55.922Z,10.20
2022-12-29T12:35:28.842Z,10.20
2022-12-29T12:38:07.588Z,10.20
2022-12-29T12:41:01.386Z,10.30
2022-12-29T12:43:41.848Z,10.20
2022-12-29T12:46:37.832Z,10.20
2022-12-29T12:49:27.227Z,10.20
2022-12-29T12:52:19.230Z,10.30
2022-12-29T12:55:13.887Z,10.30
2022-12-29T12:58:10.078Z,10.30
2022-12-29T13:01:06.077Z,10.40
2022-12-29T13:03:48.617Z,10.40
2022-12-29T13:06:18.214Z,10.30
2022-12-29T13:09:03.781Z,10.40
2022-12-29T13:11:46.372Z,10.40
2022-12-29T13:14:36.247Z,10.30
2022-12-29T13:17:21.668Z,10.40
2022-12-29T13:20:06.610Z,10.60
2022-12-29T13:22:36.167Z,10.70
2022-12-29T13:25:36.260Z,10.90
2022-12-29T13:28:26.385Z,10.60
2022-12-29T13:31:16.556Z,10.40
2022-12-29T13:34:08.167Z,10.30
2022-12-29T13:36:59.134Z,10.40
2022-12-29T13:39:34.263Z,10.40
2022-12-29T13:42:01.279Z,10.40
2022-12-29T13:44:41.354Z,10.50
2022-12-29T13:47:29.183Z,10.40
2022-12-29T13:49:56.655Z,10.40
2022-12-29T13:52:48.523Z,10.40
2022-12-29T13:55:20.641Z,10.50
2022-12-29T13:58:15.483Z,10.50
2022-12-29T14:01:01.041Z,10.40
2022-12-29T14:03:51.247Z,10.30
2022-12-29T14:06:20.459Z,10.30
2022-12-29T14:08:48.126Z,10.30
2022-12-29T14:11:18.686Z,10.00
2022-12-29T14:13:46.773Z,9.80
2022-12-29T14:16:30.227Z,9.70
2022-12-29T14:18:59.371Z,9.60
2022-12-29T14:21:30.736Z,9.60
2022-12-29T14:24:23.617Z,9.50
2022-12-29T14:26:50.377Z,9.50
2022-12-29T14:29:26.662Z,9.40
2022-12-29T14:31:53.666Z,9.40
2022-12-29T14:34:26.348Z,9.30
2022-12-29T14:36:54.533Z,9.40
2022-12-29T14:39:44.017Z,9.40
2022-12-29T14:42:10.749Z,9.40
2022-12-29T14:44:51.446Z,9.30
2022-12-29T14:47:42.058Z,9.30
2022-12-29T14:50:12.021Z,9.30
2022-12-29T14:53:03.947Z,9.30
2022-12-29T14:55:39.470Z,9.30
2022-12-29T14:58:13.550Z,9.30
2022-12-29T15:00:40.628Z,9.20
2022-12-29T15:03:23.983Z,9.20
2022-12-29T15:05:58.948Z,9.20
2022-12-29T15:08:27.452Z,9.10
2022-12-29T15:10:58.080Z,9.10
2022-12-29T15:13:32.944Z,9.10
2022-12-29T15:15:59.748Z,9.00
2022-12-29T15:18:30.936Z,8.90
2022-12-29T15:21:09.379Z,9.00
2022-12-29T15:23:36.348Z,9.00
2022-12-29T15:26:07.604Z,8.90
2022-12-29T15:28:44.814Z,8.90
2022-12-29T15:31:23.537Z,8.90
2022-12-29T15:33:55.791Z,8.80
2022-12-29T15:36:24.769Z,8.80
2022-12-29T15:38:51.734Z,8.80
2022-12-29T15:41:30.478Z,8.80
2022-12-29T15:44:09.297Z,8.70
2022-12-29T15:46:36.039Z,8.70
2022-12-29T15:49:06.624Z,8.60
2022-12-29T15:51:38.634Z,8.60
2022-12-29T15:54:05.421Z,8.50
2022-12-29T15:56:32.695Z,8.50
2022-12-29T15:59:00.021Z,8.50
2022-12-29T16:01:33.550Z,8.40
2022-12-29T16:04:01.365Z,8.40
2022-12-29T16:06:38.746Z,8.40
2022-12-29T16:09:07.655Z,8.30
2022-12-29T16:11:43.055Z,8.30
2022-12-29T16:14:18.978Z,8.30
2022-12-29T16:16:46.197Z,8.20
2022-12-29T16:19:25.921Z,8.20
2022-12-29T16:21:52.585Z,8.20
2022-12-29T16:24:20.960Z,8.20
2022-12-29T16:26:49.690Z,8.20
2022-12-29T16:29:16.783Z,8.20
2022-12-29T16:31:53.643Z,8.20
2022-12-29T16:34:34.584Z,8.20
2022-12-29T16:37:03.823Z,8.20
2022-12-29T16:39:38.551Z,8.20
2022-12-29T16:42:33.923Z,8.20
2022-12-29T16:45:30.185Z,8.10
2022-12-29T16:48:05.712Z,8.20
2022-12-29T16:50:32.840Z,8.10
2022-12-29T16:52:59.672Z,8.10
2022-12-29T16:55:26.334Z,8.10
2022-12-29T16:57:54.465Z,8.10
2022-12-29T17:00:22.465Z,8.20
2022-12-29T17:02:55.068Z,8.10
2022-12-29T17:05:24.325Z,8.10
2022-12-29T17:07:52.065Z,8.10
2022-12-29T17:10:18.820Z,8.10
2022-12-29T17:12:47.363Z,8.10
2022-12-29T17:15:27.427Z,8.10
2022-12-29T17:17:55.281Z,8.10
2022-12-29T17:20:29.698Z,8.10
2022-12-29T17:22:56.648Z,8.10
2022-12-29T17:25:31.994Z,8.00
2022-12-29T17:28:23.781Z,8.10
2022-12-29T17:30:51.140Z,8.00
2022-12-29T17:33:18.830Z,8.00
2022-12-29T17:35:49.357Z,8.00
2022-12-29T17:38:20.638Z,8.00
2022-12-29T17:40:47.359Z,8.00
2022-12-29T17:43:14.866Z,7.90
2022-12-29T17:45:41.784Z,7.90
2022-12-29T17:48:15.385Z,7.90
2022-12-29T17:50:42.119Z,7.90
2022-12-29T17:53:14.309Z,7.90
2022-12-29T17:55:41.541Z,7.90
2022-12-29T17:58:19.127Z,7.90
2022-12-29T18:00:47.166Z,7.90
2022-12-29T18:03:27.933Z,8.00
2022-12-29T18:05:55.164Z,8.00
2022-12-29T18:08:21.951Z,7.90
2022-12-29T18:10:48.717Z,7.90
2022-12-29T18:13:30.726Z,7.90
2022-12-29T18:16:02.759Z,7.90
2022-12-29T18:18:29.648Z,7.90
2022-12-29T18:20:56.711Z,7.90
2022-12-29T18:23:28.115Z,7.90
2022-12-29T18:25:57.432Z,7.80
2022-12-29T18:28:24.978Z,7.80
2022-12-29T18:30:52.392Z,7.80
2022-12-29T18:33:23.347Z,7.70
2022-12-29T18:35:54.120Z,7.70
2022-12-29T18:38:21.034Z,7.70
2022-12-29T18:40:48.398Z,7.70
2022-12-29T18:43:16.057Z,7.60
2022-12-29T18:49:34.446Z,7.60
2022-12-29T18:52:08.811Z,7.70
2022-12-29T18:54:37.597Z,7.60
2022-12-29T18:57:04.489Z,7.60
2022-12-29T18:59:31.300Z,7.70
2022-12-29T19:02:33.828Z,7.70
2022-12-29T19:05:07.067Z,7.70
2022-12-29T19:07:35.195Z,7.70
2022-12-29T19:10:03.077Z,7.70
2022-12-29T19:12:32.372Z,7.70
2022-12-29T19:14:59.314Z,7.60
2022-12-29T19:17:26.177Z,7.60
2022-12-29T19:19:54.988Z,7.50
2022-12-29T19:22:21.914Z,7.50
2022-12-29T19:24:48.690Z,7.50
2022-12-29T19:27:15.417Z,7.50
2022-12-29T19:29:42.101Z,7.50
2022-12-29T19:32:08.870Z,7.50
2022-12-29T19:34:35.625Z,7.50
2022-12-29T19:37:03.055Z,7.50
2022-12-29T19:39:29.772Z,7.40
2022-12-29T19:42:01.965Z,7.40
2022-12-29T19:44:32.026Z,7.30
2022-12-29T19:46:58.837Z,7.30
2022-12-29T19:49:29.337Z,7.30
2022-12-29T19:51:58.676Z,7.30
2022-12-29T19:54:25.419Z,7.30
2022-12-29T19:56:52.155Z,7.20
2022-12-29T19:59:19.369Z,7.20
2022-12-29T20:01:46.379Z,7.20
2022-12-29T20:04:13.419Z,7.20
2022-12-29T20:06:40.091Z,7.20
2022-12-29T20:09:06.949Z,7.20
2022-12-29T20:11:33.963Z,7.20
2022-12-29T20:14:00.764Z,7.10
2022-12-29T20:16:29.505Z,7.20
2022-12-29T20:18:56.669Z,7.20
2022-12-29T20:21:24.135Z,7.20
2022-12-29T20:23:51.709Z,7.20
2022-12-29T20:26:23.166Z,7.30
2022-12-29T20:28:49.921Z,7.30
2022-12-29T20:31:22.774Z,7.40
2022-12-29T20:33:49.664Z,7.40
2022-12-29T20:36:24.824Z,7.40
2022-12-29T20:38:52.956Z,7.40
2022-12-29T20:41:19.797Z,7.40
2022-12-29T20:43:46.566Z,7.40
2022-12-29T20:46:18.103Z,7.30
2022-12-29T20:48:47.369Z,7.30
2022-12-29T20:51:14.113Z,7.30
2022-12-29T20:53:40.813Z,7.30
2022-12-29T20:56:10.409Z,7.30
2022-12-29T20:58:59.937Z,7.30
2022-12-29T21:01:24.494Z,7.30
2022-12-29T21:03:51.500Z,7.30
2022-12-29T21:06:19.803Z,7.30
2022-12-29T21:08:48.102Z,7.20
2022-12-29T21:11:15.178Z,7.20
2022-12-29T21:13:42.003Z,7.20
2022-12-29T21:16:09.224Z,7.20
2022-12-29T21:18:36.038Z,7.20
2022-12-29T21:21:05.434Z,7.10
2022-12-29T21:23:32.351Z,7.10
2022-12-29T21:26:00.208Z,7.10
2022-12-29T21:28:27.053Z,7.10
2022-12-29T21:30:53.864Z,7.10
2022-12-29T21:33:21.584Z,7.00
2022-12-29T21:35:48.389Z,7.00
2022-12-29T21:38:15.280Z,6.90
2022-12-29T21:40:42.079Z,6.90
2022-12-29T21:43:09.825Z,6.90
2022-12-29T21:45:36.653Z,6.90
2022-12-29T21:48:37.185Z,6.90
2022-12-29T21:51:30.328Z,6.90
2022-12-29T21:54:19.503Z,6.90
2022-12-29T21:56:46.837Z,6.90
2022-12-29T21:59:33.092Z,6.80
2022-12-29T22:02:18.764Z,6.80
2022-12-29T22:05:04.020Z,6.70
2022-12-29T22:07:49.192Z,6.70
2022-12-29T22:10:34.387Z,6.70
2022-12-29T22:13:01.514Z,6.60
2022-12-29T22:15:33.000Z,6.60
2022-12-29T22:18:00.865Z,6.60
2022-12-29T22:20:29.170Z,6.60
2022-12-29T22:22:56.223Z,6.60
2022-12-29T22:25:23.599Z,6.60
2022-12-29T22:27:54.238Z,6.50
2022-12-29T22:30:26.253Z,6.50
2022-12-29T22:32:53.160Z,6.50
2022-12-29T22:35:19.869Z,6.40
2022-12-29T22:37:46.541Z,6.40
2022-12-29T22:40:13.387Z,6.40
2022-12-29T22:42:40.123Z,6.40
2022-12-29T22:45:07.557Z,6.40
2022-12-29T22:47:34.467Z,6.40
2022-12-29T22:50:01.251Z,6.40
2022-12-29T22:52:27.978Z,6.40
2022-12-29T22:54:54.782Z,6.30
2022-12-29T22:57:21.532Z,6.30
2022-12-29T22:59:48.239Z,6.30
2022-12-29T23:02:15.130Z,6.30
2022-12-29T23:07:28.766Z,6.30
2022-12-29T23:09:55.528Z,6.30
2022-12-29T23:12:22.397Z,6.40
2022-12-29T23:14:49.218Z,6.40
2022-12-29T23:17:16.077Z,6.40
2022-12-29T23:19:42.741Z,6.30
2022-12-29T23:22:09.562Z,6.30
2022-12-29T23:24:36.350Z,6.40
2022-12-29T23:27:03.074Z,6.40
2022-12-29T23:29:29.816Z,6.40
2022-12-29T23:31:56.605Z,6.40
2022-12-29T23:34:23.400Z,6.40
2022-12-29T23:36:50.955Z,6.40
2022-12-29T23:39:19.592Z,6.40
2022-12-29T23:41:46.414Z,6.40
2022-12-29T23:44:13.111Z,6.30
2022-12-29T23:46:40.877Z,6.20
2022-12-29T23:49:09.085Z,6.30
2022-12-29T23:51:35.919Z,6.20
2022-12-29T23:54:02.700Z,6.10
2022-12-29T23:56:29.621Z,6.20
2022-12-29T23:58:56.395Z,6.10
